sensor_id;sensor_type;location;lat;lon;timestamp;P1;durP1;ratioP1;P2;durP2;ratioP2
54545;SDS011;40444;45.184;9.850;2023-03-13T00:01:23;11.13;;;7.43;;
54545;SDS011;40444;45.184;9.850;2023-03-13T00:03:56;14.90;;;6.97;;
54545;SDS011;40444;45.184;9.850;2023-03-13T00:06:26;10.10;;;7.80;;
54545;SDS011;40444;45.184;9.850;2023-03-13T00:08:59;11.35;;;7.28;;
54545;SDS011;40444;45.184;9.850;2023-03-13T00:11:28;11.25;;;6.95;;
54545;SDS011;40444;45.184;9.850;2023-03-13T00:13:57;13.05;;;7.43;;
54545;SDS011;40444;45.184;9.850;2023-03-13T00:16:27;9.70;;;6.88;;
54545;SDS011;40444;45.184;9.850;2023-03-13T00:18:56;13.70;;;7.00;;
54545;SDS011;40444;45.184;9.850;2023-03-13T00:21:26;11.65;;;6.88;;
54545;SDS011;40444;45.184;9.850;2023-03-13T00:23:57;13.00;;;7.35;;
54545;SDS011;40444;45.184;9.850;2023-03-13T00:26:26;9.52;;;6.55;;
54545;SDS011;40444;45.184;9.850;2023-03-13T00:28:55;9.88;;;6.63;;
54545;SDS011;40444;45.184;9.850;2023-03-13T00:31:25;8.52;;;7.00;;
54545;SDS011;40444;45.184;9.850;2023-03-13T00:34:01;8.80;;;6.90;;
54545;SDS011;40444;45.184;9.850;2023-03-13T00:36:31;9.70;;;6.55;;
54545;SDS011;40444;45.184;9.850;2023-03-13T00:39:01;9.20;;;7.07;;
54545;SDS011;40444;45.184;9.850;2023-03-13T00:41:34;9.10;;;5.93;;
54545;SDS011;40444;45.184;9.850;2023-03-13T00:44:04;8.80;;;6.13;;
54545;SDS011;40444;45.184;9.850;2023-03-13T00:46:33;8.38;;;5.97;;
54545;SDS011;40444;45.184;9.850;2023-03-13T00:49:01;8.35;;;6.20;;
54545;SDS011;40444;45.184;9.850;2023-03-13T00:51:29;8.82;;;6.30;;
54545;SDS011;40444;45.184;9.850;2023-03-13T00:53:58;10.73;;;6.68;;
54545;SDS011;40444;45.184;9.850;2023-03-13T00:56:27;9.30;;;5.72;;
54545;SDS011;40444;45.184;9.850;2023-03-13T00:58:55;8.32;;;6.32;;
54545;SDS011;40444;45.184;9.850;2023-03-13T01:01:25;12.35;;;6.68;;
54545;SDS011;40444;45.184;9.850;2023-03-13T01:03:58;10.15;;;6.15;;
54545;SDS011;40444;45.184;9.850;2023-03-13T01:06:38;8.02;;;6.25;;
54545;SDS011;40444;45.184;9.850;2023-03-13T01:09:11;9.68;;;6.15;;
54545;SDS011;40444;45.184;9.850;2023-03-13T01:11:42;8.45;;;5.35;;
54545;SDS011;40444;45.184;9.850;2023-03-13T01:14:17;10.02;;;6.60;;
54545;SDS011;40444;45.184;9.850;2023-03-13T01:16:47;11.10;;;6.10;;
54545;SDS011;40444;45.184;9.850;2023-03-13T01:19:15;11.02;;;6.82;;
54545;SDS011;40444;45.184;9.850;2023-03-13T01:21:44;8.18;;;5.72;;
54545;SDS011;40444;45.184;9.850;2023-03-13T01:24:13;12.35;;;6.10;;
54545;SDS011;40444;45.184;9.850;2023-03-13T01:26:42;10.38;;;6.63;;
54545;SDS011;40444;45.184;9.850;2023-03-13T01:29:11;8.75;;;5.80;;
54545;SDS011;40444;45.184;9.850;2023-03-13T01:31:40;7.88;;;5.38;;
54545;SDS011;40444;45.184;9.850;2023-03-13T01:34:09;9.27;;;6.18;;
54545;SDS011;40444;45.184;9.850;2023-03-13T01:36:37;7.63;;;6.55;;
54545;SDS011;40444;45.184;9.850;2023-03-13T01:39:06;10.32;;;6.35;;
54545;SDS011;40444;45.184;9.850;2023-03-13T01:41:36;8.23;;;6.30;;
54545;SDS011;40444;45.184;9.850;2023-03-13T01:44:04;9.75;;;7.22;;
54545;SDS011;40444;45.184;9.850;2023-03-13T01:46:36;7.30;;;5.63;;
54545;SDS011;40444;45.184;9.850;2023-03-13T01:55:03;8.60;;;5.63;;
54545;SDS011;40444;45.184;9.850;2023-03-13T01:57:44;9.82;;;5.78;;
54545;SDS011;40444;45.184;9.850;2023-03-13T02:00:21;8.18;;;5.38;;
54545;SDS011;40444;45.184;9.850;2023-03-13T02:02:53;11.35;;;6.38;;
54545;SDS011;40444;45.184;9.850;2023-03-13T02:05:25;8.02;;;5.90;;
54545;SDS011;40444;45.184;9.850;2023-03-13T02:08:00;7.85;;;5.80;;
54545;SDS011;40444;45.184;9.850;2023-03-13T02:10:30;7.60;;;5.88;;
54545;SDS011;40444;45.184;9.850;2023-03-13T02:13:02;8.07;;;6.30;;
54545;SDS011;40444;45.184;9.850;2023-03-13T02:15:30;8.27;;;5.70;;
54545;SDS011;40444;45.184;9.850;2023-03-13T02:18:01;9.07;;;5.88;;
54545;SDS011;40444;45.184;9.850;2023-03-13T02:20:31;8.45;;;6.40;;
54545;SDS011;40444;45.184;9.850;2023-03-13T02:25:51;8.95;;;6.30;;
54545;SDS011;40444;45.184;9.850;2023-03-13T02:28:31;9.80;;;6.32;;
54545;SDS011;40444;45.184;9.850;2023-03-13T02:31:05;9.88;;;6.15;;
54545;SDS011;40444;45.184;9.850;2023-03-13T02:33:36;13.88;;;6.82;;
54545;SDS011;40444;45.184;9.850;2023-03-13T02:36:11;9.85;;;6.68;;
54545;SDS011;40444;45.184;9.850;2023-03-13T02:38:52;8.90;;;7.03;;
54545;SDS011;40444;45.184;9.850;2023-03-13T02:41:26;8.85;;;6.22;;
54545;SDS011;40444;45.184;9.850;2023-03-13T02:43:57;8.75;;;6.90;;
54545;SDS011;40444;45.184;9.850;2023-03-13T02:46:25;12.13;;;7.55;;
54545;SDS011;40444;45.184;9.850;2023-03-13T02:48:54;9.57;;;6.43;;
54545;SDS011;40444;45.184;9.850;2023-03-13T02:53:55;9.93;;;6.65;;
54545;SDS011;40444;45.184;9.850;2023-03-13T02:56:30;10.63;;;6.32;;
54545;SDS011;40444;45.184;9.850;2023-03-13T02:59:01;10.68;;;6.90;;
54545;SDS011;40444;45.184;9.850;2023-03-13T03:01:30;8.15;;;6.75;;
54545;SDS011;40444;45.184;9.850;2023-03-13T03:03:59;8.50;;;6.32;;
54545;SDS011;40444;45.184;9.850;2023-03-13T03:06:27;9.35;;;6.65;;
54545;SDS011;40444;45.184;9.850;2023-03-13T03:08:56;9.45;;;6.70;;
54545;SDS011;40444;45.184;9.850;2023-03-13T03:11:26;10.48;;;7.25;;
54545;SDS011;40444;45.184;9.850;2023-03-13T03:14:00;8.73;;;6.47;;
54545;SDS011;40444;45.184;9.850;2023-03-13T03:16:34;9.80;;;6.70;;
54545;SDS011;40444;45.184;9.850;2023-03-13T03:19:05;11.27;;;6.45;;
54545;SDS011;40444;45.184;9.850;2023-03-13T03:21:33;10.35;;;7.18;;
54545;SDS011;40444;45.184;9.850;2023-03-13T03:24:02;10.57;;;6.95;;
54545;SDS011;40444;45.184;9.850;2023-03-13T03:26:30;10.20;;;6.93;;
54545;SDS011;40444;45.184;9.850;2023-03-13T03:28:59;9.63;;;7.03;;
54545;SDS011;40444;45.184;9.850;2023-03-13T03:31:28;10.27;;;7.07;;
54545;SDS011;40444;45.184;9.850;2023-03-13T03:33:57;8.20;;;6.30;;
54545;SDS011;40444;45.184;9.850;2023-03-13T03:36:27;7.05;;;5.60;;
54545;SDS011;40444;45.184;9.850;2023-03-13T03:38:56;9.27;;;6.20;;
54545;SDS011;40444;45.184;9.850;2023-03-13T03:41:26;9.50;;;6.20;;
54545;SDS011;40444;45.184;9.850;2023-03-13T03:43:54;8.57;;;6.18;;
54545;SDS011;40444;45.184;9.850;2023-03-13T03:46:27;8.55;;;5.13;;
54545;SDS011;40444;45.184;9.850;2023-03-13T03:48:56;9.40;;;5.75;;
54545;SDS011;40444;45.184;9.850;2023-03-13T03:51:24;7.97;;;6.03;;
54545;SDS011;40444;45.184;9.850;2023-03-13T03:53:52;10.23;;;5.80;;
54545;SDS011;40444;45.184;9.850;2023-03-13T03:56:21;9.52;;;5.95;;
54545;SDS011;40444;45.184;9.850;2023-03-13T03:58:54;6.88;;;6.07;;
54545;SDS011;40444;45.184;9.850;2023-03-13T04:01:36;10.23;;;6.22;;
54545;SDS011;40444;45.184;9.850;2023-03-13T04:04:05;9.07;;;6.20;;
54545;SDS011;40444;45.184;9.850;2023-03-13T04:06:33;8.05;;;6.38;;
54545;SDS011;40444;45.184;9.850;2023-03-13T04:09:03;7.32;;;5.80;;
54545;SDS011;40444;45.184;9.850;2023-03-13T04:11:33;11.48;;;6.38;;
54545;SDS011;40444;45.184;9.850;2023-03-13T04:14:02;7.65;;;5.95;;
54545;SDS011;40444;45.184;9.850;2023-03-13T04:16:31;8.23;;;6.15;;
54545;SDS011;40444;45.184;9.850;2023-03-13T04:19:00;11.35;;;5.60;;
54545;SDS011;40444;45.184;9.850;2023-03-13T04:21:29;8.40;;;6.13;;
54545;SDS011;40444;45.184;9.850;2023-03-13T04:24:02;8.98;;;6.30;;
54545;SDS011;40444;45.184;9.850;2023-03-13T04:26:34;8.75;;;6.03;;
54545;SDS011;40444;45.184;9.850;2023-03-13T04:29:03;9.93;;;5.95;;
54545;SDS011;40444;45.184;9.850;2023-03-13T04:31:45;6.70;;;5.63;;
54545;SDS011;40444;45.184;9.850;2023-03-13T04:34:42;7.95;;;5.90;;
54545;SDS011;40444;45.184;9.850;2023-03-13T04:37:33;9.98;;;5.85;;
54545;SDS011;40444;45.184;9.850;2023-03-13T04:40:22;7.43;;;5.85;;
54545;SDS011;40444;45.184;9.850;2023-03-13T04:43:06;9.05;;;5.40;;
54545;SDS011;40444;45.184;9.850;2023-03-13T04:45:50;8.57;;;5.88;;
54545;SDS011;40444;45.184;9.850;2023-03-13T04:48:21;9.63;;;6.57;;
54545;SDS011;40444;45.184;9.850;2023-03-13T04:51:08;7.97;;;6.07;;
54545;SDS011;40444;45.184;9.850;2023-03-13T04:54:00;7.90;;;5.57;;
54545;SDS011;40444;45.184;9.850;2023-03-13T04:57:03;8.02;;;6.07;;
54545;SDS011;40444;45.184;9.850;2023-03-13T05:00:00;9.98;;;6.22;;
54545;SDS011;40444;45.184;9.850;2023-03-13T05:02:47;9.45;;;5.72;;
54545;SDS011;40444;45.184;9.850;2023-03-13T05:05:34;9.00;;;5.95;;
54545;SDS011;40444;45.184;9.850;2023-03-13T05:08:18;8.57;;;6.25;;
54545;SDS011;40444;45.184;9.850;2023-03-13T05:11:04;9.07;;;5.85;;
54545;SDS011;40444;45.184;9.850;2023-03-13T05:13:56;9.15;;;6.32;;
54545;SDS011;40444;45.184;9.850;2023-03-13T05:16:37;7.20;;;5.78;;
54545;SDS011;40444;45.184;9.850;2023-03-13T05:19:11;8.57;;;6.20;;
54545;SDS011;40444;45.184;9.850;2023-03-13T05:21:58;7.13;;;5.88;;
54545;SDS011;40444;45.184;9.850;2023-03-13T05:24:55;9.90;;;7.70;;
54545;SDS011;40444;45.184;9.850;2023-03-13T23:06:03;20.90;;;14.73;;
54545;SDS011;40444;45.184;9.850;2023-03-13T23:08:33;20.90;;;14.88;;
54545;SDS011;40444;45.184;9.850;2023-03-13T23:11:02;20.77;;;13.93;;
54545;SDS011;40444;45.184;9.850;2023-03-13T23:13:31;17.13;;;13.00;;
54545;SDS011;40444;45.184;9.850;2023-03-13T23:16:01;19.10;;;12.85;;
54545;SDS011;40444;45.184;9.850;2023-03-13T23:18:32;15.02;;;11.45;;
54545;SDS011;40444;45.184;9.850;2023-03-13T23:21:10;13.48;;;10.18;;
54545;SDS011;40444;45.184;9.850;2023-03-13T23:23:40;15.43;;;10.32;;
54545;SDS011;40444;45.184;9.850;2023-03-13T23:26:11;14.30;;;10.20;;
54545;SDS011;40444;45.184;9.850;2023-03-13T23:28:42;14.35;;;10.15;;
54545;SDS011;40444;45.184;9.850;2023-03-13T23:31:12;14.88;;;9.02;;
54545;SDS011;40444;45.184;9.850;2023-03-13T23:33:46;13.65;;;8.65;;
54545;SDS011;40444;45.184;9.850;2023-03-13T23:36:16;12.70;;;9.20;;
54545;SDS011;40444;45.184;9.850;2023-03-13T23:38:49;13.88;;;9.15;;
54545;SDS011;40444;45.184;9.850;2023-03-13T23:41:19;12.77;;;9.68;;
54545;SDS011;40444;45.184;9.850;2023-03-13T23:43:48;11.43;;;9.10;;
54545;SDS011;40444;45.184;9.850;2023-03-13T23:46:17;14.15;;;9.05;;
54545;SDS011;40444;45.184;9.850;2023-03-13T23:48:47;14.25;;;9.32;;
54545;SDS011;40444;45.184;9.850;2023-03-13T23:51:15;12.98;;;8.10;;
54545;SDS011;40444;45.184;9.850;2023-03-13T23:53:43;10.52;;;8.57;;
54545;SDS011;40444;45.184;9.850;2023-03-13T23:56:12;12.48;;;8.80;;
54545;SDS011;40444;45.184;9.850;2023-03-13T23:58:41;12.48;;;8.32;;
